createdAt,value
2019-05-03T00:02:12.185Z,15.03
2019-05-03T00:08:14.362Z,16.55
2019-05-03T00:14:16.848Z,14.53
2019-05-03T00:20:19.113Z,15.23
2019-05-03T00:26:22.591Z,15.45
2019-05-03T00:32:26.887Z,15.80
2019-05-03T00:38:29.213Z,13.05
2019-05-03T00:44:31.780Z,13.60
2019-05-03T00:50:34.242Z,12.55
2019-05-03T00:56:36.475Z,12.80
2019-05-03T01:02:38.793Z,12.88
2019-05-03T01:08:41.934Z,11.50
2019-05-03T01:14:46.079Z,10.60
2019-05-03T01:20:48.302Z,10.25
2019-05-03T01:26:52.431Z,8.03
2019-05-03T01:32:54.753Z,8.35
2019-05-03T01:38:57.190Z,7.62
2019-05-03T01:45:01.537Z,6.25
2019-05-03T01:51:05.370Z,6.05
2019-05-03T01:57:07.599Z,5.40
2019-05-03T02:03:14.588Z,6.00
2019-05-03T02:09:16.767Z,5.55
2019-05-03T02:15:19.200Z,5.05
2019-05-03T02:21:21.705Z,4.22
2019-05-03T02:27:24.062Z,3.98
2019-05-03T02:33:26.394Z,3.65
2019-05-03T02:39:29.789Z,3.52
2019-05-03T02:45:35.179Z,3.22
2019-05-03T02:51:37.370Z,2.98
2019-05-03T02:57:39.783Z,2.95
2019-05-03T03:03:42.121Z,3.10
2019-05-03T03:09:45.530Z,2.98
2019-05-03T03:15:50.233Z,2.72
2019-05-03T03:21:56.279Z,2.72
2019-05-03T03:28:00.852Z,2.95
2019-05-03T03:34:08.830Z,2.83
2019-05-03T03:40:12.205Z,2.20
2019-05-03T03:46:15.872Z,2.70
2019-05-03T03:52:19.921Z,2.55
2019-05-03T03:58:26.736Z,2.70
2019-05-03T04:04:28.536Z,3.05
2019-05-03T04:10:31.049Z,2.30
2019-05-03T04:16:38.252Z,2.65
2019-05-03T04:22:40.757Z,2.95
2019-05-03T04:28:45.396Z,2.83
2019-05-03T04:34:47.271Z,2.47
2019-05-03T04:40:50.814Z,2.77
2019-05-03T04:46:55.994Z,2.35
2019-05-03T04:52:57.333Z,2.50
2019-05-03T04:58:59.591Z,2.10
2019-05-03T05:05:02.112Z,2.62
2019-05-03T05:11:10.030Z,2.92
2019-05-03T05:17:12.214Z,3.00
2019-05-03T05:23:14.890Z,3.60
2019-05-03T05:29:19.253Z,3.10
2019-05-03T05:35:21.620Z,3.05
2019-05-03T05:41:24.542Z,2.70
2019-05-03T05:47:40.658Z,3.17
2019-05-03T05:53:44.783Z,3.22
2019-05-03T05:59:49.017Z,2.60
2019-05-03T06:05:51.785Z,2.40
2019-05-03T06:11:56.070Z,2.67
2019-05-03T06:18:00.354Z,2.50
2019-05-03T06:24:07.727Z,2.55
2019-05-03T06:30:28.955Z,2.40
2019-05-03T06:36:31.424Z,2.45
2019-05-03T06:42:35.521Z,3.05
2019-05-03T06:48:37.928Z,3.12
2019-05-03T06:54:40.335Z,2.50
2019-05-03T07:00:55.241Z,2.45
2019-05-03T07:07:15.400Z,1.82
2019-05-03T07:13:17.413Z,2.67
2019-05-03T07:19:19.656Z,2.37
2019-05-03T07:25:22.394Z,2.17
2019-05-03T07:31:25.533Z,2.67
2019-05-03T07:37:28.528Z,2.27
2019-05-03T07:43:31.228Z,2.37
2019-05-03T07:49:35.491Z,3.08
2019-05-03T07:55:56.580Z,2.67
2019-05-03T08:01:59.256Z,3.00
2019-05-03T08:08:01.730Z,3.83
2019-05-03T08:14:05.676Z,3.95
2019-05-03T08:20:08.176Z,7.83
2019-05-03T08:26:10.497Z,7.17
2019-05-03T08:32:35.141Z,7.92
2019-05-03T08:38:37.075Z,8.53
2019-05-03T08:44:39.564Z,8.10
2019-05-03T08:50:41.899Z,8.78
2019-05-03T08:56:45.154Z,8.33
2019-05-03T09:02:47.640Z,10.25
2019-05-03T09:08:49.905Z,12.55
2019-05-03T09:14:54.293Z,12.20
2019-05-03T09:20:56.615Z,12.05
2019-05-03T09:26:59.021Z,14.68
2019-05-03T09:33:01.343Z,15.30
2019-05-03T09:39:05.403Z,14.25
2019-05-03T09:45:08.493Z,13.65
2019-05-03T09:51:10.827Z,14.93
2019-05-03T09:57:15.252Z,14.15
2019-05-03T10:03:17.800Z,17.70
2019-05-03T10:09:20.778Z,15.30
2019-05-03T10:15:41.644Z,17.70
2019-05-03T10:21:48.340Z,15.75
2019-05-03T10:27:55.032Z,13.80
2019-05-03T10:33:59.471Z,13.20
2019-05-03T10:40:07.801Z,16.40
2019-05-03T10:46:09.241Z,14.95
2019-05-03T10:52:12.003Z,13.32
2019-05-03T10:58:18.968Z,12.53
2019-05-03T11:04:21.562Z,10.48
2019-05-03T11:10:25.259Z,12.33
2019-05-03T11:16:28.163Z,13.10
2019-05-03T11:22:30.509Z,12.05
2019-05-03T11:28:32.689Z,11.90
2019-05-03T11:34:36.862Z,10.45
2019-05-03T11:40:39.251Z,12.85
2019-05-03T11:46:44.534Z,11.20
2019-05-03T11:52:47.400Z,11.57
2019-05-03T11:58:49.994Z,11.35
2019-05-03T12:04:52.393Z,11.68
2019-05-03T12:10:59.763Z,10.13
2019-05-03T12:17:17.184Z,10.05
2019-05-03T12:23:06.398Z,10.53
2019-05-03T12:29:09.169Z,10.32
2019-05-03T12:35:11.438Z,9.83
2019-05-03T12:41:15.076Z,10.03
2019-05-03T12:47:17.571Z,10.65
2019-05-03T12:53:22.021Z,11.55
2019-05-03T12:59:30.958Z,11.68
2019-05-03T13:05:35.515Z,9.95
2019-05-03T13:11:51.787Z,10.08
2019-05-03T13:17:45.412Z,9.35
2019-05-03T13:23:47.883Z,9.23
2019-05-03T13:29:50.211Z,13.72
2019-05-03T13:35:52.581Z,13.55
2019-05-03T13:41:55.030Z,13.03
2019-05-03T13:48:04.821Z,13.58
2019-05-03T13:54:06.468Z,14.03
2019-05-03T14:00:09.190Z,14.90
2019-05-03T14:06:11.658Z,14.40
2019-05-03T14:12:15.464Z,12.30
2019-05-03T14:18:17.947Z,13.72
2019-05-03T14:24:20.244Z,9.65
2019-05-03T14:30:22.872Z,5.30
2019-05-03T14:36:25.274Z,5.03
2019-05-03T14:42:27.621Z,4.17
2019-05-03T14:48:30.018Z,4.45
2019-05-03T14:54:34.562Z,5.33
2019-05-03T15:00:45.429Z,3.72
2019-05-03T15:06:47.858Z,4.80
2019-05-03T15:12:50.354Z,4.85
2019-05-03T15:18:54.751Z,4.75
2019-05-03T15:24:57.343Z,4.55
2019-05-03T15:30:59.805Z,5.90
2019-05-03T15:37:02.135Z,6.70
2019-05-03T15:43:10.354Z,9.70
2019-05-03T15:49:16.366Z,9.63
2019-05-03T15:55:22.325Z,7.83
2019-05-03T16:01:25.089Z,6.55
2019-05-03T16:07:27.599Z,8.00
2019-05-03T16:13:30.062Z,10.18
2019-05-03T16:19:32.425Z,11.33
2019-05-03T16:25:35.622Z,10.65
2019-05-03T16:31:38.077Z,9.43
2019-05-03T16:37:41.219Z,10.28
2019-05-03T16:43:45.551Z,9.33
2019-05-03T16:49:47.879Z,7.83
2019-05-03T16:55:50.228Z,6.97
2019-05-03T17:01:52.746Z,8.28
2019-05-03T17:08:15.281Z,7.03
2019-05-03T17:14:17.773Z,8.20
2019-05-03T17:20:20.919Z,6.92
2019-05-03T17:26:24.872Z,6.53
2019-05-03T17:32:27.739Z,8.58
2019-05-03T17:38:30.130Z,7.87
2019-05-03T17:44:37.113Z,8.33
2019-05-03T17:50:39.609Z,7.55
2019-05-03T17:57:00.074Z,7.37
2019-05-03T18:03:04.701Z,7.08
2019-05-03T18:09:09.714Z,7.12
2019-05-03T18:15:12.133Z,7.25
2019-05-03T18:21:15.356Z,9.60
2019-05-03T18:27:17.695Z,8.25
2019-05-03T18:33:20.146Z,6.03
2019-05-03T18:39:22.550Z,6.92
2019-05-03T18:45:28.298Z,6.75
2019-05-03T18:51:30.636Z,7.30
2019-05-03T18:57:33.007Z,10.30
2019-05-03T19:03:35.847Z,7.80
2019-05-03T19:09:40.819Z,7.95
2019-05-03T19:15:43.715Z,9.38
2019-05-03T19:21:47.007Z,9.40
2019-05-03T19:27:50.072Z,9.13
2019-05-03T19:33:52.486Z,8.98
2019-05-03T19:39:55.382Z,8.33
2019-05-03T19:45:57.676Z,9.60
2019-05-03T19:52:00.128Z,10.72
2019-05-03T19:58:02.792Z,11.08
2019-05-03T20:04:10.102Z,11.80
2019-05-03T20:10:14.630Z,9.95
2019-05-03T20:16:17.040Z,10.32
2019-05-03T20:22:19.352Z,9.98
2019-05-03T20:28:21.723Z,9.88
2019-05-03T20:34:24.859Z,11.22
2019-05-03T20:40:27.479Z,9.05
2019-05-03T20:46:34.552Z,10.58
2019-05-03T20:52:37.798Z,9.63
2019-05-03T20:58:40.234Z,10.05
2019-05-03T21:04:42.885Z,8.95
2019-05-03T21:10:46.162Z,10.63
2019-05-03T21:16:50.992Z,10.38
2019-05-03T21:22:54.780Z,10.38
2019-05-03T21:28:57.150Z,11.05
2019-05-03T21:34:59.512Z,10.88
2019-05-03T21:41:02.406Z,10.90
2019-05-03T21:47:12.692Z,10.60
2019-05-03T21:53:15.731Z,11.68
2019-05-03T21:59:18.036Z,11.28
2019-05-03T22:05:20.837Z,12.60
2019-05-03T22:11:25.013Z,11.50
2019-05-03T22:24:35.636Z,14.28
2019-05-03T22:30:38.055Z,13.38
2019-05-03T22:36:41.516Z,13.10
2019-05-03T22:42:44.810Z,12.28
2019-05-03T22:48:47.212Z,11.00
2019-05-03T22:54:49.559Z,12.70
2019-05-03T23:00:51.859Z,11.57
2019-05-03T23:06:55.507Z,11.38
2019-05-03T23:12:57.998Z,11.33
2019-05-03T23:33:08.738Z,13.38
2019-05-03T23:39:10.967Z,12.50
2019-05-03T23:45:14.891Z,12.40
2019-05-03T23:51:35.080Z,11.90
2019-05-03T23:57:37.598Z,12.07
